Tram, Kentucky
Current Conditions -  °F | °C
As of 3:35 AM on Saturday 22 Nov 2014 (Local Time) from KPBX Reporting Station
Clear Clear  
Wind Chill: 25°   Ceiling: Unl
Heat Index: 31°   Visibility: 10mi
Dew Point: 13°   Wind: 6mph
Humidity: 48%   Direction: 160°SSE
Pressure: 30.36"   Gusts: NA
Location:  37.57°N, 82.65°W
Report Text: KPBX 220835Z AUTO 16005KT 10SM CLR M01/M10 A3036 RMK AO2 T10061103
Loading
Personal Weather Stations






























Interactive Weather Map New forecast layout! Learn more

10-Day Weather Forecast

Advertisements
Track Severe Weather on mobile